sensor_id;sensor_type;location;lat;lon;timestamp;P1;durP1;ratioP1;P2;durP2;ratioP2
59302;SDS011;45074;52.764;6.896;2022-12-07T00:01:44;9.48;;;2.80;;
59302;SDS011;45074;52.764;6.896;2022-12-07T00:04:12;6.53;;;2.63;;
59302;SDS011;45074;52.764;6.896;2022-12-07T00:06:40;10.23;;;2.90;;
59302;SDS011;45074;52.764;6.896;2022-12-07T00:09:11;7.68;;;3.10;;
59302;SDS011;45074;52.764;6.896;2022-12-07T00:11:41;6.05;;;2.65;;
59302;SDS011;45074;52.764;6.896;2022-12-07T00:14:09;9.45;;;2.53;;
59302;SDS011;45074;52.764;6.896;2022-12-07T00:16:39;8.43;;;2.58;;
59302;SDS011;45074;52.764;6.896;2022-12-07T00:19:05;6.28;;;2.50;;
59302;SDS011;45074;52.764;6.896;2022-12-07T00:21:32;9.38;;;2.70;;
59302;SDS011;45074;52.764;6.896;2022-12-07T00:24:00;7.13;;;2.47;;
59302;SDS011;45074;52.764;6.896;2022-12-07T00:26:27;7.28;;;2.40;;
59302;SDS011;45074;52.764;6.896;2022-12-07T00:28:56;7.47;;;2.25;;
59302;SDS011;45074;52.764;6.896;2022-12-07T00:31:25;7.90;;;2.33;;
59302;SDS011;45074;52.764;6.896;2022-12-07T00:33:53;5.55;;;2.17;;
59302;SDS011;45074;52.764;6.896;2022-12-07T00:36:20;8.95;;;2.67;;
59302;SDS011;45074;52.764;6.896;2022-12-07T00:38:49;6.60;;;2.28;;
59302;SDS011;45074;52.764;6.896;2022-12-07T00:41:19;8.05;;;3.00;;
59302;SDS011;45074;52.764;6.896;2022-12-07T00:43:46;6.60;;;2.72;;
59302;SDS011;45074;52.764;6.896;2022-12-07T00:46:13;8.02;;;2.30;;
59302;SDS011;45074;52.764;6.896;2022-12-07T00:48:40;8.07;;;2.15;;
59302;SDS011;45074;52.764;6.896;2022-12-07T00:51:06;5.50;;;1.83;;
59302;SDS011;45074;52.764;6.896;2022-12-07T00:53:36;6.97;;;2.33;;
59302;SDS011;45074;52.764;6.896;2022-12-07T00:56:09;7.82;;;2.00;;
59302;SDS011;45074;52.764;6.896;2022-12-07T00:58:42;7.45;;;1.95;;
59302;SDS011;45074;52.764;6.896;2022-12-07T01:01:09;7.40;;;2.00;;
59302;SDS011;45074;52.764;6.896;2022-12-07T01:03:36;8.02;;;2.05;;
59302;SDS011;45074;52.764;6.896;2022-12-07T01:06:02;6.25;;;1.80;;
59302;SDS011;45074;52.764;6.896;2022-12-07T01:08:28;7.55;;;2.03;;
59302;SDS011;45074;52.764;6.896;2022-12-07T01:11:14;6.05;;;1.98;;
59302;SDS011;45074;52.764;6.896;2022-12-07T01:13:41;9.45;;;2.00;;
59302;SDS011;45074;52.764;6.896;2022-12-07T01:16:09;11.43;;;2.40;;
59302;SDS011;45074;52.764;6.896;2022-12-07T01:18:37;5.63;;;1.73;;
59302;SDS011;45074;52.764;6.896;2022-12-07T01:21:04;5.53;;;1.80;;
59302;SDS011;45074;52.764;6.896;2022-12-07T01:23:37;8.93;;;1.92;;
59302;SDS011;45074;52.764;6.896;2022-12-07T01:26:04;5.78;;;1.98;;
59302;SDS011;45074;52.764;6.896;2022-12-07T01:28:32;10.13;;;2.30;;
59302;SDS011;45074;52.764;6.896;2022-12-07T01:31:06;9.30;;;2.10;;
59302;SDS011;45074;52.764;6.896;2022-12-07T01:33:37;11.50;;;3.88;;
59302;SDS011;45074;52.764;6.896;2022-12-07T01:36:04;5.05;;;2.03;;
59302;SDS011;45074;52.764;6.896;2022-12-07T01:38:50;7.35;;;2.00;;
59302;SDS011;45074;52.764;6.896;2022-12-07T01:41:21;7.82;;;2.47;;
59302;SDS011;45074;52.764;6.896;2022-12-07T01:51:58;7.03;;;1.85;;
59302;SDS011;45074;52.764;6.896;2022-12-07T01:54:43;8.25;;;2.10;;
59302;SDS011;45074;52.764;6.896;2022-12-07T01:57:10;5.53;;;2.03;;
59302;SDS011;45074;52.764;6.896;2022-12-07T01:59:39;6.93;;;1.80;;
59302;SDS011;45074;52.764;6.896;2022-12-07T02:02:07;8.88;;;2.03;;
59302;SDS011;45074;52.764;6.896;2022-12-07T02:04:41;6.55;;;1.90;;
59302;SDS011;45074;52.764;6.896;2022-12-07T02:07:07;5.88;;;1.60;;
59302;SDS011;45074;52.764;6.896;2022-12-07T02:09:33;7.63;;;1.70;;
59302;SDS011;45074;52.764;6.896;2022-12-07T02:11:58;6.97;;;1.70;;
59302;SDS011;45074;52.764;6.896;2022-12-07T02:14:24;6.80;;;1.73;;
59302;SDS011;45074;52.764;6.896;2022-12-07T02:28:12;4.82;;;1.55;;
59302;SDS011;45074;52.764;6.896;2022-12-07T02:30:57;6.93;;;1.45;;
59302;SDS011;45074;52.764;6.896;2022-12-07T02:33:28;6.00;;;1.85;;
59302;SDS011;45074;52.764;6.896;2022-12-07T02:36:04;6.75;;;1.75;;
59302;SDS011;45074;52.764;6.896;2022-12-07T02:38:38;6.85;;;1.40;;
59302;SDS011;45074;52.764;6.896;2022-12-07T02:41:16;8.27;;;1.55;;
59302;SDS011;45074;52.764;6.896;2022-12-07T02:43:52;8.02;;;1.50;;
59302;SDS011;45074;52.764;6.896;2022-12-07T02:46:28;6.93;;;1.20;;
59302;SDS011;45074;52.764;6.896;2022-12-07T02:48:57;4.40;;;1.20;;
59302;SDS011;45074;52.764;6.896;2022-12-07T02:51:29;5.57;;;1.80;;
59302;SDS011;45074;52.764;6.896;2022-12-07T02:53:56;4.18;;;1.10;;
59302;SDS011;45074;52.764;6.896;2022-12-07T03:07:20;7.15;;;1.40;;
59302;SDS011;45074;52.764;6.896;2022-12-07T03:12:26;8.55;;;1.60;;
59302;SDS011;45074;52.764;6.896;2022-12-07T03:15:12;9.00;;;1.45;;
59302;SDS011;45074;52.764;6.896;2022-12-07T03:17:43;3.85;;;1.50;;
59302;SDS011;45074;52.764;6.896;2022-12-07T03:20:12;8.65;;;2.00;;
59302;SDS011;45074;52.764;6.896;2022-12-07T03:22:40;6.40;;;1.77;;
59302;SDS011;45074;52.764;6.896;2022-12-07T03:25:09;5.93;;;1.75;;
59302;SDS011;45074;52.764;6.896;2022-12-07T03:28:01;7.30;;;2.15;;
59302;SDS011;45074;52.764;6.896;2022-12-07T03:30:29;8.57;;;2.38;;
59302;SDS011;45074;52.764;6.896;2022-12-07T03:33:20;7.85;;;2.10;;
59302;SDS011;45074;52.764;6.896;2022-12-07T03:35:55;6.55;;;1.77;;
59302;SDS011;45074;52.764;6.896;2022-12-07T03:38:43;4.93;;;1.70;;
59302;SDS011;45074;52.764;6.896;2022-12-07T03:41:22;6.18;;;1.77;;
59302;SDS011;45074;52.764;6.896;2022-12-07T03:43:54;8.18;;;2.17;;
59302;SDS011;45074;52.764;6.896;2022-12-07T03:46:42;7.50;;;1.98;;
59302;SDS011;45074;52.764;6.896;2022-12-07T03:49:31;9.95;;;2.20;;
59302;SDS011;45074;52.764;6.896;2022-12-07T03:54:44;8.73;;;2.03;;
59302;SDS011;45074;52.764;6.896;2022-12-07T03:57:21;6.95;;;1.65;;
59302;SDS011;45074;52.764;6.896;2022-12-07T03:59:48;7.53;;;1.85;;
59302;SDS011;45074;52.764;6.896;2022-12-07T04:02:16;8.38;;;1.50;;
59302;SDS011;45074;52.764;6.896;2022-12-07T04:04:42;5.82;;;2.28;;
59302;SDS011;45074;52.764;6.896;2022-12-07T04:07:09;8.50;;;2.38;;
59302;SDS011;45074;52.764;6.896;2022-12-07T04:09:35;8.60;;;1.98;;
59302;SDS011;45074;52.764;6.896;2022-12-07T04:12:01;11.75;;;2.17;;
59302;SDS011;45074;52.764;6.896;2022-12-07T04:14:27;6.93;;;1.50;;
59302;SDS011;45074;52.764;6.896;2022-12-07T04:16:54;5.82;;;1.67;;
59302;SDS011;45074;52.764;6.896;2022-12-07T04:19:25;4.93;;;1.77;;
59302;SDS011;45074;52.764;6.896;2022-12-07T04:21:53;5.50;;;1.63;;
59302;SDS011;45074;52.764;6.896;2022-12-07T04:24:19;7.28;;;1.80;;
59302;SDS011;45074;52.764;6.896;2022-12-07T04:26:45;9.30;;;2.30;;
59302;SDS011;45074;52.764;6.896;2022-12-07T04:29:11;4.90;;;1.30;;
59302;SDS011;45074;52.764;6.896;2022-12-07T04:31:38;7.75;;;1.40;;
59302;SDS011;45074;52.764;6.896;2022-12-07T04:34:04;5.93;;;1.30;;
59302;SDS011;45074;52.764;6.896;2022-12-07T04:36:31;7.25;;;1.42;;
59302;SDS011;45074;52.764;6.896;2022-12-07T04:38:57;3.95;;;1.20;;
59302;SDS011;45074;52.764;6.896;2022-12-07T04:41:23;4.18;;;1.30;;
59302;SDS011;45074;52.764;6.896;2022-12-07T04:43:56;6.53;;;1.55;;
59302;SDS011;45074;52.764;6.896;2022-12-07T04:46:24;5.72;;;1.33;;
59302;SDS011;45074;52.764;6.896;2022-12-07T04:48:51;7.25;;;1.40;;
59302;SDS011;45074;52.764;6.896;2022-12-07T04:51:22;5.53;;;1.00;;
59302;SDS011;45074;52.764;6.896;2022-12-07T04:53:49;5.57;;;1.40;;
59302;SDS011;45074;52.764;6.896;2022-12-07T04:56:16;3.25;;;1.30;;
59302;SDS011;45074;52.764;6.896;2022-12-07T04:58:43;4.60;;;1.40;;
59302;SDS011;45074;52.764;6.896;2022-12-07T05:01:10;6.10;;;1.33;;
59302;SDS011;45074;52.764;6.896;2022-12-07T05:03:36;5.80;;;1.30;;
59302;SDS011;45074;52.764;6.896;2022-12-07T05:06:02;8.98;;;1.58;;
59302;SDS011;45074;52.764;6.896;2022-12-07T05:08:29;5.18;;;1.20;;
59302;SDS011;45074;52.764;6.896;2022-12-07T05:10:55;6.82;;;1.90;;
59302;SDS011;45074;52.764;6.896;2022-12-07T05:13:21;5.80;;;1.40;;
59302;SDS011;45074;52.764;6.896;2022-12-07T05:15:47;7.93;;;1.75;;
59302;SDS011;45074;52.764;6.896;2022-12-07T05:18:13;6.95;;;1.40;;
59302;SDS011;45074;52.764;6.896;2022-12-07T05:20:40;7.88;;;1.60;;
59302;SDS011;45074;52.764;6.896;2022-12-07T05:23:06;9.10;;;3.05;;
59302;SDS011;45074;52.764;6.896;2022-12-07T05:25:31;7.50;;;1.75;;
59302;SDS011;45074;52.764;6.896;2022-12-07T05:27:57;8.30;;;1.50;;
59302;SDS011;45074;52.764;6.896;2022-12-07T05:30:24;9.48;;;1.98;;
59302;SDS011;45074;52.764;6.896;2022-12-07T05:32:50;9.38;;;1.50;;
59302;SDS011;45074;52.764;6.896;2022-12-07T05:35:16;6.03;;;1.40;;
59302;SDS011;45074;52.764;6.896;2022-12-07T05:37:42;5.68;;;1.30;;
59302;SDS011;45074;52.764;6.896;2022-12-07T05:40:08;10.00;;;1.65;;
59302;SDS011;45074;52.764;6.896;2022-12-07T05:42:35;7.80;;;1.35;;
59302;SDS011;45074;52.764;6.896;2022-12-07T05:45:01;7.95;;;1.40;;
59302;SDS011;45074;52.764;6.896;2022-12-07T05:47:27;4.55;;;1.27;;
59302;SDS011;45074;52.764;6.896;2022-12-07T05:49:53;9.77;;;1.45;;
59302;SDS011;45074;52.764;6.896;2022-12-07T05:52:19;6.25;;;1.50;;
59302;SDS011;45074;52.764;6.896;2022-12-07T05:54:45;7.65;;;1.60;;
59302;SDS011;45074;52.764;6.896;2022-12-07T05:57:11;8.85;;;1.40;;
59302;SDS011;45074;52.764;6.896;2022-12-07T05:59:37;8.23;;;1.50;;
59302;SDS011;45074;52.764;6.896;2022-12-07T06:02:04;4.90;;;1.60;;
59302;SDS011;45074;52.764;6.896;2022-12-07T06:04:35;8.63;;;3.05;;
59302;SDS011;45074;52.764;6.896;2022-12-07T06:07:02;9.70;;;1.73;;
59302;SDS011;45074;52.764;6.896;2022-12-07T06:09:29;5.90;;;1.60;;
59302;SDS011;45074;52.764;6.896;2022-12-07T06:11:55;9.40;;;1.42;;
59302;SDS011;45074;52.764;6.896;2022-12-07T06:14:40;6.55;;;1.17;;
59302;SDS011;45074;52.764;6.896;2022-12-07T06:17:06;6.70;;;1.63;;
59302;SDS011;45074;52.764;6.896;2022-12-07T06:19:33;7.85;;;1.70;;
59302;SDS011;45074;52.764;6.896;2022-12-07T06:22:00;6.72;;;1.30;;
59302;SDS011;45074;52.764;6.896;2022-12-07T06:24:26;6.60;;;1.52;;
59302;SDS011;45074;52.764;6.896;2022-12-07T06:26:52;6.15;;;1.50;;
59302;SDS011;45074;52.764;6.896;2022-12-07T06:29:18;5.40;;;1.55;;
59302;SDS011;45074;52.764;6.896;2022-12-07T06:31:44;6.40;;;1.80;;
59302;SDS011;45074;52.764;6.896;2022-12-07T06:34:11;6.93;;;1.77;;
59302;SDS011;45074;52.764;6.896;2022-12-07T06:36:40;4.72;;;1.40;;
59302;SDS011;45074;52.764;6.896;2022-12-07T06:39:06;5.93;;;1.50;;
59302;SDS011;45074;52.764;6.896;2022-12-07T06:41:34;6.72;;;1.50;;
59302;SDS011;45074;52.764;6.896;2022-12-07T06:44:06;9.30;;;2.13;;
59302;SDS011;45074;52.764;6.896;2022-12-07T06:46:32;7.50;;;1.80;;
59302;SDS011;45074;52.764;6.896;2022-12-07T06:49:00;4.50;;;1.73;;
59302;SDS011;45074;52.764;6.896;2022-12-07T06:51:26;6.15;;;1.83;;
59302;SDS011;45074;52.764;6.896;2022-12-07T06:53:52;6.72;;;1.92;;
59302;SDS011;45074;52.764;6.896;2022-12-07T06:56:18;6.78;;;1.63;;
59302;SDS011;45074;52.764;6.896;2022-12-07T06:58:44;11.18;;;2.10;;
59302;SDS011;45074;52.764;6.896;2022-12-07T07:01:11;7.15;;;2.33;;
59302;SDS011;45074;52.764;6.896;2022-12-07T07:03:40;9.20;;;2.28;;
59302;SDS011;45074;52.764;6.896;2022-12-07T07:06:07;7.85;;;1.83;;
59302;SDS011;45074;52.764;6.896;2022-12-07T07:08:34;8.65;;;1.65;;
59302;SDS011;45074;52.764;6.896;2022-12-07T07:11:00;8.65;;;2.00;;
59302;SDS011;45074;52.764;6.896;2022-12-07T07:13:26;8.38;;;1.92;;
59302;SDS011;45074;52.764;6.896;2022-12-07T07:15:52;7.63;;;2.60;;
59302;SDS011;45074;52.764;6.896;2022-12-07T07:18:18;8.63;;;1.80;;
59302;SDS011;45074;52.764;6.896;2022-12-07T07:20:44;7.32;;;1.63;;
59302;SDS011;45074;52.764;6.896;2022-12-07T07:23:10;4.57;;;1.45;;
59302;SDS011;45074;52.764;6.896;2022-12-07T07:25:37;7.85;;;1.75;;
59302;SDS011;45074;52.764;6.896;2022-12-07T07:28:03;7.85;;;2.35;;
59302;SDS011;45074;52.764;6.896;2022-12-07T07:30:29;9.93;;;1.98;;
59302;SDS011;45074;52.764;6.896;2022-12-07T07:32:58;8.10;;;1.70;;
59302;SDS011;45074;52.764;6.896;2022-12-07T07:35:29;9.07;;;2.15;;
59302;SDS011;45074;52.764;6.896;2022-12-07T07:37:56;9.77;;;2.28;;
59302;SDS011;45074;52.764;6.896;2022-12-07T07:40:22;6.72;;;1.90;;
59302;SDS011;45074;52.764;6.896;2022-12-07T07:42:52;5.80;;;1.65;;
59302;SDS011;45074;52.764;6.896;2022-12-07T07:45:19;9.70;;;1.83;;
59302;SDS011;45074;52.764;6.896;2022-12-07T07:47:45;7.47;;;2.13;;
59302;SDS011;45074;52.764;6.896;2022-12-07T07:50:11;7.05;;;1.98;;
59302;SDS011;45074;52.764;6.896;2022-12-07T07:52:37;8.35;;;1.63;;
59302;SDS011;45074;52.764;6.896;2022-12-07T07:55:03;11.82;;;1.98;;
59302;SDS011;45074;52.764;6.896;2022-12-07T07:57:30;7.65;;;1.55;;
59302;SDS011;45074;52.764;6.896;2022-12-07T07:59:56;7.55;;;1.83;;
59302;SDS011;45074;52.764;6.896;2022-12-07T08:02:22;6.10;;;1.77;;
59302;SDS011;45074;52.764;6.896;2022-12-07T08:04:48;6.03;;;1.83;;
59302;SDS011;45074;52.764;6.896;2022-12-07T08:07:14;5.80;;;1.40;;
59302;SDS011;45074;52.764;6.896;2022-12-07T08:09:40;5.38;;;1.73;;
59302;SDS011;45074;52.764;6.896;2022-12-07T08:12:07;7.70;;;1.83;;
59302;SDS011;45074;52.764;6.896;2022-12-07T08:14:33;6.72;;;1.45;;
59302;SDS011;45074;52.764;6.896;2022-12-07T08:16:59;5.95;;;1.88;;
59302;SDS011;45074;52.764;6.896;2022-12-07T08:19:26;4.45;;;1.55;;
59302;SDS011;45074;52.764;6.896;2022-12-07T08:21:52;6.57;;;1.70;;
59302;SDS011;45074;52.764;6.896;2022-12-07T08:24:20;7.20;;;2.13;;
59302;SDS011;45074;52.764;6.896;2022-12-07T08:26:46;8.20;;;1.50;;
59302;SDS011;45074;52.764;6.896;2022-12-07T08:29:12;5.65;;;1.55;;
59302;SDS011;45074;52.764;6.896;2022-12-07T08:31:38;7.47;;;1.70;;
59302;SDS011;45074;52.764;6.896;2022-12-07T08:34:04;10.07;;;2.08;;
59302;SDS011;45074;52.764;6.896;2022-12-07T08:36:31;8.60;;;1.80;;
59302;SDS011;45074;52.764;6.896;2022-12-07T08:38:57;7.90;;;1.83;;
59302;SDS011;45074;52.764;6.896;2022-12-07T08:41:22;8.65;;;2.13;;
59302;SDS011;45074;52.764;6.896;2022-12-07T08:43:48;7.97;;;1.85;;
59302;SDS011;45074;52.764;6.896;2022-12-07T08:46:18;6.45;;;1.75;;
59302;SDS011;45074;52.764;6.896;2022-12-07T08:48:55;9.77;;;2.05;;
59302;SDS011;45074;52.764;6.896;2022-12-07T08:51:24;8.25;;;2.03;;
59302;SDS011;45074;52.764;6.896;2022-12-07T08:53:50;8.43;;;2.40;;
59302;SDS011;45074;52.764;6.896;2022-12-07T08:56:16;7.20;;;1.80;;
59302;SDS011;45074;52.764;6.896;2022-12-07T08:58:42;5.13;;;1.65;;
59302;SDS011;45074;52.764;6.896;2022-12-07T09:01:09;5.03;;;2.10;;
59302;SDS011;45074;52.764;6.896;2022-12-07T09:03:35;6.78;;;2.08;;
59302;SDS011;45074;52.764;6.896;2022-12-07T09:06:01;7.05;;;2.00;;
59302;SDS011;45074;52.764;6.896;2022-12-07T09:08:31;9.25;;;1.80;;
59302;SDS011;45074;52.764;6.896;2022-12-07T09:10:59;9.90;;;2.35;;
59302;SDS011;45074;52.764;6.896;2022-12-07T09:13:25;6.55;;;2.05;;
59302;SDS011;45074;52.764;6.896;2022-12-07T09:15:51;7.20;;;2.80;;
59302;SDS011;45074;52.764;6.896;2022-12-07T09:18:17;10.88;;;2.50;;
59302;SDS011;45074;52.764;6.896;2022-12-07T09:20:44;6.10;;;2.17;;
59302;SDS011;45074;52.764;6.896;2022-12-07T09:23:10;7.25;;;1.90;;
59302;SDS011;45074;52.764;6.896;2022-12-07T09:25:36;9.82;;;2.63;;
59302;SDS011;45074;52.764;6.896;2022-12-07T09:28:01;5.78;;;2.10;;
59302;SDS011;45074;52.764;6.896;2022-12-07T09:30:28;9.45;;;2.40;;
59302;SDS011;45074;52.764;6.896;2022-12-07T09:32:54;6.70;;;1.80;;
59302;SDS011;45074;52.764;6.896;2022-12-07T09:35:21;8.32;;;2.00;;
59302;SDS011;45074;52.764;6.896;2022-12-07T09:37:47;7.38;;;1.73;;
59302;SDS011;45074;52.764;6.896;2022-12-07T09:40:14;6.35;;;2.00;;
59302;SDS011;45074;52.764;6.896;2022-12-07T09:42:42;6.53;;;2.00;;
59302;SDS011;45074;52.764;6.896;2022-12-07T09:45:12;8.00;;;1.67;;
59302;SDS011;45074;52.764;6.896;2022-12-07T09:47:41;9.93;;;2.10;;
59302;SDS011;45074;52.764;6.896;2022-12-07T09:50:19;8.07;;;1.85;;
59302;SDS011;45074;52.764;6.896;2022-12-07T09:52:50;10.60;;;1.90;;
59302;SDS011;45074;52.764;6.896;2022-12-07T09:55:19;10.35;;;2.10;;
59302;SDS011;45074;52.764;6.896;2022-12-07T09:57:49;8.20;;;2.20;;
59302;SDS011;45074;52.764;6.896;2022-12-07T10:00:17;6.15;;;1.83;;
59302;SDS011;45074;52.764;6.896;2022-12-07T10:03:04;10.38;;;2.25;;
59302;SDS011;45074;52.764;6.896;2022-12-07T10:05:40;9.20;;;1.83;;
59302;SDS011;45074;52.764;6.896;2022-12-07T10:08:11;7.90;;;1.73;;
59302;SDS011;45074;52.764;6.896;2022-12-07T10:10:38;6.47;;;1.80;;
59302;SDS011;45074;52.764;6.896;2022-12-07T10:15:54;5.68;;;1.98;;
59302;SDS011;45074;52.764;6.896;2022-12-07T10:18:35;7.30;;;2.33;;
59302;SDS011;45074;52.764;6.896;2022-12-07T10:21:08;8.40;;;1.93;;
59302;SDS011;45074;52.764;6.896;2022-12-07T10:23:38;9.30;;;2.00;;
59302;SDS011;45074;52.764;6.896;2022-12-07T10:26:25;4.90;;;2.00;;
59302;SDS011;45074;52.764;6.896;2022-12-07T10:29:16;8.65;;;1.88;;
59302;SDS011;45074;52.764;6.896;2022-12-07T10:31:58;11.70;;;2.13;;
59302;SDS011;45074;52.764;6.896;2022-12-07T10:34:26;5.15;;;1.70;;
59302;SDS011;45074;52.764;6.896;2022-12-07T10:37:07;5.38;;;1.60;;
59302;SDS011;45074;52.764;6.896;2022-12-07T10:39:48;5.88;;;1.75;;
59302;SDS011;45074;52.764;6.896;2022-12-07T10:42:16;8.35;;;2.15;;
59302;SDS011;45074;52.764;6.896;2022-12-07T10:45:16;8.27;;;1.98;;
59302;SDS011;45074;52.764;6.896;2022-12-07T10:47:51;7.35;;;1.70;;
59302;SDS011;45074;52.764;6.896;2022-12-07T10:56:05;6.65;;;1.52;;
59302;SDS011;45074;52.764;6.896;2022-12-07T10:58:55;5.75;;;1.80;;
59302;SDS011;45074;52.764;6.896;2022-12-07T11:18:11;7.10;;;2.00;;
59302;SDS011;45074;52.764;6.896;2022-12-07T11:20:55;10.07;;;2.20;;
59302;SDS011;45074;52.764;6.896;2022-12-07T11:31:22;7.90;;;1.80;;
59302;SDS011;45074;52.764;6.896;2022-12-07T11:34:15;9.35;;;1.70;;
59302;SDS011;45074;52.764;6.896;2022-12-07T11:36:51;6.53;;;1.55;;
59302;SDS011;45074;52.764;6.896;2022-12-07T11:39:23;6.90;;;1.70;;
59302;SDS011;45074;52.764;6.896;2022-12-07T11:41:59;9.00;;;1.73;;
59302;SDS011;45074;52.764;6.896;2022-12-07T11:44:34;7.45;;;2.25;;
59302;SDS011;45074;52.764;6.896;2022-12-07T11:47:10;8.43;;;1.90;;
59302;SDS011;45074;52.764;6.896;2022-12-07T11:49:54;4.95;;;1.85;;
59302;SDS011;45074;52.764;6.896;2022-12-07T11:52:22;7.15;;;2.15;;
59302;SDS011;45074;52.764;6.896;2022-12-07T11:54:55;6.88;;;1.75;;
59302;SDS011;45074;52.764;6.896;2022-12-07T11:57:27;5.43;;;1.83;;
59302;SDS011;45074;52.764;6.896;2022-12-07T12:00:06;7.90;;;1.80;;
59302;SDS011;45074;52.764;6.896;2022-12-07T12:05:27;7.82;;;2.65;;
59302;SDS011;45074;52.764;6.896;2022-12-07T12:21:36;6.53;;;1.85;;
59302;SDS011;45074;52.764;6.896;2022-12-07T12:24:05;3.70;;;1.52;;
59302;SDS011;45074;52.764;6.896;2022-12-07T12:26:38;4.78;;;1.63;;
59302;SDS011;45074;52.764;6.896;2022-12-07T12:29:20;6.47;;;1.65;;
59302;SDS011;45074;52.764;6.896;2022-12-07T12:34:37;6.93;;;1.58;;
59302;SDS011;45074;52.764;6.896;2022-12-07T12:42:46;10.07;;;2.20;;
59302;SDS011;45074;52.764;6.896;2022-12-07T12:45:27;8.35;;;2.00;;
59302;SDS011;45074;52.764;6.896;2022-12-07T12:48:27;5.50;;;1.60;;
59302;SDS011;45074;52.764;6.896;2022-12-07T12:54:10;5.65;;;1.85;;
59302;SDS011;45074;52.764;6.896;2022-12-07T13:01:54;5.60;;;1.60;;
59302;SDS011;45074;52.764;6.896;2022-12-07T13:04:27;6.75;;;1.88;;
59302;SDS011;45074;52.764;6.896;2022-12-07T13:06:59;7.60;;;1.80;;
59302;SDS011;45074;52.764;6.896;2022-12-07T13:09:26;8.48;;;1.73;;
59302;SDS011;45074;52.764;6.896;2022-12-07T13:12:11;9.05;;;1.80;;
59302;SDS011;45074;52.764;6.896;2022-12-07T13:14:43;10.52;;;2.17;;
59302;SDS011;45074;52.764;6.896;2022-12-07T13:17:54;9.75;;;2.38;;
59302;SDS011;45074;52.764;6.896;2022-12-07T13:20:40;6.97;;;1.90;;
59302;SDS011;45074;52.764;6.896;2022-12-07T13:23:08;8.55;;;1.95;;
59302;SDS011;45074;52.764;6.896;2022-12-07T13:28:21;6.20;;;1.40;;
59302;SDS011;45074;52.764;6.896;2022-12-07T13:33:17;6.10;;;1.50;;
59302;SDS011;45074;52.764;6.896;2022-12-07T13:35:44;7.65;;;2.08;;
59302;SDS011;45074;52.764;6.896;2022-12-07T13:38:19;7.97;;;1.40;;
59302;SDS011;45074;52.764;6.896;2022-12-07T13:41:05;5.80;;;1.50;;
59302;SDS011;45074;52.764;6.896;2022-12-07T13:43:49;6.07;;;1.42;;
59302;SDS011;45074;52.764;6.896;2022-12-07T13:47:09;5.97;;;1.30;;
59302;SDS011;45074;52.764;6.896;2022-12-07T13:49:26;4.43;;;1.30;;
59302;SDS011;45074;52.764;6.896;2022-12-07T13:51:55;6.88;;;1.40;;
59302;SDS011;45074;52.764;6.896;2022-12-07T13:54:43;7.45;;;1.92;;
59302;SDS011;45074;52.764;6.896;2022-12-07T13:57:14;4.38;;;1.05;;
59302;SDS011;45074;52.764;6.896;2022-12-07T13:59:41;4.15;;;1.30;;
59302;SDS011;45074;52.764;6.896;2022-12-07T14:02:27;8.18;;;1.67;;
59302;SDS011;45074;52.764;6.896;2022-12-07T14:08:34;4.97;;;0.90;;
59302;SDS011;45074;52.764;6.896;2022-12-07T14:10:39;4.43;;;1.20;;
59302;SDS011;45074;52.764;6.896;2022-12-07T14:16:28;4.18;;;1.33;;
59302;SDS011;45074;52.764;6.896;2022-12-07T14:18:57;1.30;;;0.77;;
59302;SDS011;45074;52.764;6.896;2022-12-07T14:21:25;3.95;;;1.20;;
59302;SDS011;45074;52.764;6.896;2022-12-07T14:26:48;5.28;;;1.33;;
59302;SDS011;45074;52.764;6.896;2022-12-07T14:29:33;4.43;;;1.60;;
59302;SDS011;45074;52.764;6.896;2022-12-07T14:35:00;3.53;;;1.05;;
59302;SDS011;45074;52.764;6.896;2022-12-07T14:37:27;1.60;;;1.05;;
59302;SDS011;45074;52.764;6.896;2022-12-07T14:39:54;4.90;;;1.20;;
59302;SDS011;45074;52.764;6.896;2022-12-07T14:42:20;4.03;;;1.15;;
59302;SDS011;45074;52.764;6.896;2022-12-07T14:44:51;5.63;;;1.40;;
59302;SDS011;45074;52.764;6.896;2022-12-07T14:47:17;4.32;;;1.30;;
59302;SDS011;45074;52.764;6.896;2022-12-07T14:49:43;5.13;;;1.30;;
59302;SDS011;45074;52.764;6.896;2022-12-07T14:52:11;3.67;;;1.27;;
59302;SDS011;45074;52.764;6.896;2022-12-07T14:54:41;3.83;;;1.33;;
59302;SDS011;45074;52.764;6.896;2022-12-07T14:57:08;4.25;;;1.35;;
59302;SDS011;45074;52.764;6.896;2022-12-07T14:59:35;3.70;;;1.30;;
59302;SDS011;45074;52.764;6.896;2022-12-07T15:02:01;3.55;;;1.10;;
59302;SDS011;45074;52.764;6.896;2022-12-07T15:04:27;4.38;;;1.48;;
59302;SDS011;45074;52.764;6.896;2022-12-07T15:06:57;6.25;;;1.38;;
59302;SDS011;45074;52.764;6.896;2022-12-07T15:09:24;2.95;;;1.42;;
59302;SDS011;45074;52.764;6.896;2022-12-07T15:11:50;5.95;;;1.40;;
59302;SDS011;45074;52.764;6.896;2022-12-07T15:14:16;2.75;;;1.40;;
59302;SDS011;45074;52.764;6.896;2022-12-07T15:16:42;5.32;;;1.67;;
59302;SDS011;45074;52.764;6.896;2022-12-07T15:19:12;6.20;;;1.70;;
59302;SDS011;45074;52.764;6.896;2022-12-07T15:24:06;7.07;;;1.40;;
59302;SDS011;45074;52.764;6.896;2022-12-07T15:26:32;4.78;;;2.15;;
59302;SDS011;45074;52.764;6.896;2022-12-07T15:28:58;6.93;;;2.50;;
59302;SDS011;45074;52.764;6.896;2022-12-07T15:31:23;5.30;;;2.03;;
59302;SDS011;45074;52.764;6.896;2022-12-07T15:33:49;6.53;;;1.90;;
59302;SDS011;45074;52.764;6.896;2022-12-07T15:36:23;8.35;;;2.05;;
59302;SDS011;45074;52.764;6.896;2022-12-07T15:38:50;5.70;;;2.20;;
59302;SDS011;45074;52.764;6.896;2022-12-07T15:41:17;6.18;;;2.13;;
59302;SDS011;45074;52.764;6.896;2022-12-07T15:43:43;5.72;;;1.92;;
59302;SDS011;45074;52.764;6.896;2022-12-07T15:46:48;4.05;;;2.13;;
59302;SDS011;45074;52.764;6.896;2022-12-07T15:49:15;6.60;;;2.00;;
59302;SDS011;45074;52.764;6.896;2022-12-07T15:51:43;7.20;;;2.35;;
59302;SDS011;45074;52.764;6.896;2022-12-07T15:54:11;5.95;;;2.30;;
59302;SDS011;45074;52.764;6.896;2022-12-07T15:56:40;7.32;;;2.65;;
59302;SDS011;45074;52.764;6.896;2022-12-07T15:59:06;6.03;;;2.75;;
59302;SDS011;45074;52.764;6.896;2022-12-07T16:01:32;9.43;;;2.03;;
59302;SDS011;45074;52.764;6.896;2022-12-07T16:03:58;5.55;;;2.17;;
59302;SDS011;45074;52.764;6.896;2022-12-07T16:06:24;8.52;;;2.83;;
59302;SDS011;45074;52.764;6.896;2022-12-07T16:08:51;6.97;;;2.20;;
59302;SDS011;45074;52.764;6.896;2022-12-07T16:11:17;8.60;;;2.92;;
59302;SDS011;45074;52.764;6.896;2022-12-07T16:13:43;8.00;;;2.20;;
59302;SDS011;45074;52.764;6.896;2022-12-07T16:16:13;4.82;;;1.88;;
59302;SDS011;45074;52.764;6.896;2022-12-07T16:18:41;5.38;;;2.22;;
59302;SDS011;45074;52.764;6.896;2022-12-07T16:21:07;6.40;;;2.75;;
59302;SDS011;45074;52.764;6.896;2022-12-07T16:23:33;9.15;;;3.13;;
59302;SDS011;45074;52.764;6.896;2022-12-07T16:28:34;6.53;;;2.38;;
59302;SDS011;45074;52.764;6.896;2022-12-07T16:31:01;9.05;;;2.50;;
59302;SDS011;45074;52.764;6.896;2022-12-07T16:33:28;6.45;;;2.50;;
59302;SDS011;45074;52.764;6.896;2022-12-07T16:35:54;7.50;;;2.67;;
59302;SDS011;45074;52.764;6.896;2022-12-07T16:38:20;7.28;;;2.65;;
59302;SDS011;45074;52.764;6.896;2022-12-07T16:40:46;5.53;;;2.28;;
59302;SDS011;45074;52.764;6.896;2022-12-07T16:43:13;8.18;;;2.88;;
59302;SDS011;45074;52.764;6.896;2022-12-07T16:45:39;7.35;;;2.70;;
59302;SDS011;45074;52.764;6.896;2022-12-07T16:48:05;8.07;;;2.30;;
59302;SDS011;45074;52.764;6.896;2022-12-07T16:50:31;7.28;;;2.28;;
59302;SDS011;45074;52.764;6.896;2022-12-07T16:52:57;7.20;;;2.88;;
59302;SDS011;45074;52.764;6.896;2022-12-07T16:55:23;7.80;;;2.00;;
59302;SDS011;45074;52.764;6.896;2022-12-07T16:57:49;4.38;;;2.40;;
59302;SDS011;45074;52.764;6.896;2022-12-07T17:00:15;5.72;;;2.13;;
59302;SDS011;45074;52.764;6.896;2022-12-07T17:02:41;4.72;;;1.80;;
59302;SDS011;45074;52.764;6.896;2022-12-07T17:05:07;5.25;;;1.80;;
59302;SDS011;45074;52.764;6.896;2022-12-07T17:07:33;4.43;;;1.80;;
59302;SDS011;45074;52.764;6.896;2022-12-07T17:09:59;5.65;;;1.85;;